Time;durP1;ratioP1;P1;durP2;ratioP2;P2;SDS_P1;SDS_P2;PMS_P1;PMS_P2;Temp;Humidity;BMP_temperature;BMP_pressure;BME280_temperature;BME280_humidity;BME280_pressure;Samples;Min_cycle;Max_cycle;Signal;HPM_P1;HPM_P2
2022/09/03 00:00:00;;;;;;;1999.90;999.90;;;21.60;99.90;;;;;;5248462;28;20431;-71
2022/09/03 00:02:46;;;;;;;1999.90;999.90;;;21.50;99.90;;;;;;5248489;28;20045;-71
2022/09/03 00:05:25;;;;;;;1999.90;999.90;;;21.60;99.90;;;;;;5248689;28;20117;-72
2022/09/03 00:08:17;;;;;;;1999.90;999.90;;;21.40;99.90;;;;;;5248869;28;20067;-70
2022/09/03 00:10:57;;;;;;;1999.90;999.90;;;21.50;99.90;;;;;;5248598;28;20369;-70
2022/09/03 00:13:42;;;;;;;1999.90;999.90;;;21.60;99.90;;;;;;5248214;28;20483;-70
2022/09/03 00:16:19;;;;;;;1999.90;999.90;;;21.70;99.90;;;;;;5248366;28;20033;-70
2022/09/03 00:19:02;;;;;;;1999.90;999.90;;;21.50;99.90;;;;;;5230924;28;20124;-70
2022/09/03 00:21:58;;;;;;;1999.90;999.90;;;21.50;99.90;;;;;;5248207;28;20095;-71
2022/09/03 00:24:35;;;;;;;1999.90;999.90;;;21.60;99.90;;;;;;5248046;28;20040;-70
2022/09/03 00:27:12;;;;;;;1999.90;999.90;;;21.60;99.90;;;;;;5247885;28;20036;-70
2022/09/03 00:30:02;;;;;;;1999.90;999.90;;;21.70;99.90;;;;;;5230058;28;20039;-70
2022/09/03 00:32:45;;;;;;;1999.90;999.90;;;21.60;99.90;;;;;;5247811;28;20086;-70
2022/09/03 00:35:24;;;;;;;1999.90;999.90;;;21.40;99.90;;;;;;5247801;28;20082;-70
2022/09/03 00:37:56;;;;;;;1999.90;999.90;;;21.50;99.90;;;;;;5247677;28;20031;-69
2022/09/03 00:40:53;;;;;;;1999.90;999.90;;;21.60;99.90;;;;;;5247622;28;20117;-70
2022/09/03 00:43:53;;;;;;;1999.90;999.90;;;21.60;99.90;;;;;;5247551;28;20031;-70
2022/09/03 00:46:31;;;;;;;;;;;21.40;99.90;;;;;;5247689;28;20032;-71
2022/09/03 00:49:11;;;;;;;1999.90;999.90;;;21.50;99.90;;;;;;5247116;28;19912;-69
2022/09/03 00:51:57;;;;;;;1999.90;999.90;;;21.40;99.90;;;;;;5247419;28;20020;-70
2022/09/03 00:54:33;;;;;;;1999.90;999.90;;;21.50;99.90;;;;;;5247257;28;20040;-70
2022/09/03 00:57:10;;;;;;;1999.90;999.90;;;21.50;99.90;;;;;;5247184;28;20044;-70
2022/09/03 01:00:07;;;;;;;1999.90;999.90;;;21.40;99.90;;;;;;5247649;28;20031;-69
2022/09/03 01:03:01;;;;;;;1999.90;999.90;;;21.60;99.90;;;;;;5247346;28;20482;-70
2022/09/03 01:05:40;;;;;;;1999.90;999.90;;;21.50;99.90;;;;;;5247245;28;20017;-70
2022/09/03 01:08:17;;;;;;;1999.90;999.90;;;21.40;99.90;;;;;;5246352;28;20024;-69
2022/09/03 01:10:48;;;;;;;1999.90;999.90;;;21.30;99.90;;;;;;5247255;28;20027;-70
2022/09/03 01:13:38;;;;;;;1999.90;999.90;;;21.10;99.90;;;;;;5246915;28;20458;-70
2022/09/03 01:16:26;;;;;;;1999.90;999.90;;;21.10;99.90;;;;;;5247029;28;20024;-70
2022/09/03 01:19:26;;;;;;;1999.90;999.90;;;21.10;99.90;;;;;;5246951;28;20507;-70
2022/09/03 01:22:04;;;;;;;1999.90;999.90;;;21.10;99.90;;;;;;5246937;28;20475;-70
2022/09/03 01:25:03;;;;;;;1999.90;999.90;;;21.20;99.90;;;;;;5246775;28;20119;-70
2022/09/03 01:27:45;;;;;;;1999.90;999.90;;;20.90;99.90;;;;;;5246722;28;20040;-70
2022/09/03 01:30:22;;;;;;;1999.90;999.90;;;21.00;99.90;;;;;;5228786;28;20072;-71
2022/09/03 01:33:06;;;;;;;1999.90;999.90;;;20.80;99.90;;;;;;5246616;28;20108;-70
2022/09/03 01:35:59;;;;;;;1999.90;999.90;;;21.00;99.90;;;;;;5246751;28;20467;-70
2022/09/03 01:38:34;;;;;;;1999.90;999.90;;;21.00;99.90;;;;;;5246577;28;20059;-70
2022/09/03 01:44:43;;;;;;;1999.90;999.90;;;20.70;99.90;;;;;;5246921;28;20446;-70
2022/09/03 01:47:33;;;;;;;1999.90;999.90;;;20.60;99.90;;;;;;5246290;28;20048;-70
2022/09/03 01:50:17;;;;;;;1999.90;999.90;;;20.60;99.90;;;;;;5246597;28;20544;-70
2022/09/03 01:53:02;;;;;;;1999.90;999.90;;;20.80;99.90;;;;;;5246650;28;20028;-70
2022/09/03 01:56:12;;;;;;;1999.90;999.90;;;20.70;99.90;;;;;;5246453;28;20063;-70
2022/09/03 01:59:11;;;;;;;1999.90;999.90;;;20.70;99.90;;;;;;5222349;28;20075;-74
2022/09/03 02:02:18;;;;;;;1999.90;999.90;;;20.70;99.90;;;;;;5232238;28;20063;-70
2022/09/03 02:05:08;;;;;;;1999.90;999.90;;;20.60;99.90;;;;;;5242973;28;20495;-70
2022/09/03 02:07:45;;;;;;;1999.90;999.90;;;20.60;99.90;;;;;;5246343;28;20036;-71
2022/09/03 02:10:28;;;;;;;1999.90;999.90;;;20.70;99.90;;;;;;5246442;28;20036;-72
2022/09/03 02:13:27;;;;;;;1999.90;999.90;;;20.80;99.90;;;;;;5246626;28;20024;-73
2022/09/03 02:16:02;;;;;;;1999.90;999.90;;;20.60;99.90;;;;;;5247060;28;20025;-74
2022/09/03 02:18:40;;;;;;;1999.90;999.90;;;20.50;99.90;;;;;;5246812;28;20035;-70
2022/09/03 02:21:16;;;;;;;1999.90;999.90;;;20.30;99.90;;;;;;5250978;28;20017;-71
2022/09/03 02:23:48;;;;;;;1999.90;999.90;;;20.40;99.90;;;;;;5250733;28;20423;-71
2022/09/03 02:26:22;;;;;;;1999.90;999.90;;;20.30;99.90;;;;;;5250371;28;20079;-72
2022/09/03 02:28:54;;;;;;;1999.90;999.90;;;20.30;99.90;;;;;;5250270;28;20044;-70
2022/09/03 02:31:27;;;;;;;1999.90;999.90;;;20.30;99.90;;;;;;5250303;28;20078;-75
2022/09/03 02:33:59;;;;;;;1999.90;999.90;;;20.40;99.90;;;;;;5250242;28;20016;-69
2022/09/03 02:36:34;;;;;;;1999.90;999.90;;;20.30;99.90;;;;;;5250200;28;20020;-74
2022/09/03 02:39:05;;;;;;;1999.90;999.90;;;20.50;99.90;;;;;;5250035;28;20194;-73
2022/09/03 02:41:36;;;;;;;1999.90;999.90;;;20.40;99.90;;;;;;5250057;28;20379;-72
2022/09/03 02:44:24;;;;;;;1999.90;999.90;;;20.40;99.90;;;;;;5249834;28;20024;-74
2022/09/03 02:47:01;;;;;;;1999.90;999.90;;;20.30;99.90;;;;;;5249770;28;20071;-70
2022/09/03 02:49:33;;;;;;;1999.90;999.90;;;20.20;99.90;;;;;;5249856;28;20034;-71
2022/09/03 02:52:10;;;;;;;1999.90;999.90;;;20.10;99.90;;;;;;5249801;28;20464;-70
2022/09/03 02:54:43;;;;;;;1999.90;999.90;;;20.20;99.90;;;;;;5231673;28;20029;-70
2022/09/03 02:57:16;;;;;;;1999.90;999.90;;;20.20;99.90;;;;;;5249562;28;20058;-71
2022/09/03 02:59:46;;;;;;;1999.90;999.90;;;20.20;99.90;;;;;;5249640;28;20028;-71
2022/09/03 03:02:17;;;;;;;1999.90;999.90;;;20.10;99.90;;;;;;5249608;28;20021;-69
2022/09/03 03:04:48;;;;;;;1999.90;999.90;;;20.20;99.90;;;;;;5249513;28;20024;-70
2022/09/03 03:07:19;;;;;;;1999.90;999.90;;;20.20;99.90;;;;;;5249388;28;20028;-75
2022/09/03 03:09:50;;;;;;;1999.90;999.90;;;20.00;99.90;;;;;;5249595;28;20036;-69
2022/09/03 03:12:20;;;;;;;1999.90;999.90;;;20.20;99.90;;;;;;5231457;28;20428;-73
2022/09/03 03:14:51;;;;;;;1999.90;999.90;;;20.10;99.90;;;;;;5249564;28;20016;-70
2022/09/03 03:17:22;;;;;;;1999.90;999.90;;;20.10;99.90;;;;;;5249362;28;20480;-70
2022/09/03 03:19:53;;;;;;;1999.90;999.90;;;20.10;99.90;;;;;;5249614;28;20017;-70
2022/09/03 03:22:24;;;;;;;1999.90;999.90;;;19.90;99.90;;;;;;5249666;28;20016;-71
2022/09/03 03:24:56;;;;;;;1999.90;999.90;;;20.10;99.90;;;;;;5231401;28;20020;-70
2022/09/03 03:27:27;;;;;;;1999.90;999.90;;;20.10;99.90;;;;;;5249394;28;20794;-72
2022/09/03 03:29:58;;;;;;;1999.90;999.90;;;20.20;99.90;;;;;;5249482;28;20036;-72
2022/09/03 03:32:28;;;;;;;1999.90;999.90;;;20.10;99.90;;;;;;5248161;28;20025;-73
2022/09/03 03:34:59;;;;;;;1999.90;999.90;;;20.00;99.90;;;;;;5248996;28;20029;-70
2022/09/03 03:37:31;;;;;;;1999.90;999.90;;;20.20;99.90;;;;;;5248863;28;20036;-69
2022/09/03 03:40:02;;;;;;;1999.90;999.90;;;20.40;99.90;;;;;;5248917;28;20024;-69
2022/09/03 03:42:33;;;;;;;1999.90;999.90;;;20.20;99.90;;;;;;5248791;28;20035;-70
2022/09/03 03:45:06;;;;;;;1999.90;999.90;;;20.30;99.90;;;;;;5248831;28;20478;-72
2022/09/03 03:47:36;;;;;;;1999.90;999.90;;;20.20;99.90;;;;;;5248693;28;20447;-73
2022/09/03 03:50:07;;;;;;;1999.90;999.90;;;20.10;99.90;;;;;;5248830;28;20108;-70
2022/09/03 03:52:38;;;;;;;1999.90;999.90;;;20.10;99.90;;;;;;5248772;28;20468;-70
2022/09/03 03:55:09;;;;;;;1999.90;999.90;;;20.10;99.90;;;;;;5248558;28;20036;-71
2022/09/03 03:57:40;;;;;;;1999.90;999.90;;;20.20;99.90;;;;;;5248441;28;20057;-75
2022/09/03 04:00:11;;;;;;;1999.90;999.90;;;20.20;99.90;;;;;;5248426;28;20101;-75
2022/09/03 04:02:42;;;;;;;1999.90;999.90;;;20.20;99.90;;;;;;5248505;28;20051;-72
2022/09/03 04:05:14;;;;;;;1999.90;999.90;;;20.40;99.90;;;;;;5248370;28;20028;-75
2022/09/03 04:07:44;;;;;;;1999.90;999.90;;;20.30;99.90;;;;;;5248228;28;20032;-70
2022/09/03 04:10:15;;;;;;;1999.90;999.90;;;20.30;99.90;;;;;;5248299;28;20032;-72
2022/09/03 04:12:46;;;;;;;1999.90;999.90;;;20.30;99.90;;;;;;5248244;28;20029;-71
2022/09/03 04:15:17;;;;;;;1999.90;999.90;;;20.40;99.90;;;;;;5248135;28;20401;-74
2022/09/03 04:17:47;;;;;;;1999.90;999.90;;;20.60;99.90;;;;;;5248225;28;20035;-74
2022/09/03 04:20:18;;;;;;;1999.90;999.90;;;20.60;99.90;;;;;;5248216;28;20027;-73
2022/09/03 04:22:49;;;;;;;1999.90;999.90;;;20.60;99.90;;;;;;5248070;28;20498;-71
2022/09/03 04:25:20;;;;;;;1999.90;999.90;;;20.40;99.90;;;;;;5247846;28;20032;-70
2022/09/03 04:27:51;;;;;;;1999.90;999.90;;;20.40;99.90;;;;;;5247908;28;20051;-70
2022/09/03 04:30:22;;;;;;;1999.90;999.90;;;20.40;99.90;;;;;;5247993;28;20035;-74
2022/09/03 04:32:53;;;;;;;1999.90;999.90;;;20.60;99.90;;;;;;5247858;28;20024;-70
2022/09/03 04:35:32;;;;;;;1999.90;999.90;;;20.70;99.90;;;;;;5247673;28;20017;-73
2022/09/03 04:38:03;;;;;;;1999.90;999.90;;;20.70;99.90;;;;;;5247844;28;20032;-69
2022/09/03 04:40:34;;;;;;;1999.90;999.90;;;20.90;99.90;;;;;;5247776;28;20170;-69
2022/09/03 04:43:05;;;;;;;1999.90;999.90;;;21.00;99.90;;;;;;5247840;28;20466;-70
2022/09/03 04:45:36;;;;;;;1999.90;999.90;;;20.90;99.90;;;;;;5247732;28;20491;-70
2022/09/03 04:48:09;;;;;;;1999.90;999.90;;;21.10;99.90;;;;;;5247575;28;20071;-70
2022/09/03 04:50:40;;;;;;;1999.90;999.90;;;21.20;99.90;;;;;;5247572;28;20453;-70
2022/09/03 04:53:11;;;;;;;1999.90;999.90;;;21.50;99.90;;;;;;5247475;28;20024;-71
2022/09/03 04:55:42;;;;;;;1999.90;999.90;;;21.60;99.90;;;;;;5247213;28;20051;-72
2022/09/03 04:58:13;;;;;;;1999.90;999.90;;;21.50;99.90;;;;;;5247321;28;20056;-70
2022/09/03 05:00:44;;;;;;;1999.90;999.90;;;22.00;99.90;;;;;;5247368;28;20602;-69
2022/09/03 05:03:14;;;;;;;1999.90;999.90;;;22.00;99.90;;;;;;5247129;28;20044;-70
2022/09/03 05:05:53;;;;;;;1999.90;999.90;;;22.00;99.90;;;;;;5247235;28;20025;-70
2022/09/03 05:08:24;;;;;;;1999.90;999.90;;;21.80;99.90;;;;;;5247065;28;20129;-70
2022/09/03 05:10:59;;;;;;;1999.90;999.90;;;21.90;99.90;;;;;;5247055;28;20016;-70
2022/09/03 05:13:32;;;;;;;1999.90;999.90;;;21.90;99.90;;;;;;5246961;28;20388;-70
2022/09/03 05:16:05;;;;;;;1999.90;999.90;;;22.00;99.90;;;;;;5246976;28;20477;-70
2022/09/03 05:18:37;;;;;;;1999.90;999.90;;;22.00;99.90;;;;;;5246858;28;20080;-70
2022/09/03 05:21:10;;;;;;;1999.90;999.90;;;21.90;99.90;;;;;;5246970;28;20012;-70
2022/09/03 05:23:43;;;;;;;1999.90;999.90;;;22.10;99.90;;;;;;5246968;28;20071;-70
2022/09/03 05:26:17;;;;;;;1999.90;999.90;;;22.00;99.90;;;;;;5246773;28;20016;-70
2022/09/03 05:28:56;;;;;;;1999.90;999.90;;;22.20;99.90;;;;;;5246728;28;20076;-70
2022/09/03 05:31:30;;;;;;;1999.90;999.90;;;22.20;99.90;;;;;;5229041;28;20029;-70
2022/09/03 05:34:03;;;;;;;1999.90;999.90;;;22.20;99.90;;;;;;5246807;28;20035;-69
2022/09/03 05:36:36;;;;;;;1999.90;999.90;;;22.30;99.90;;;;;;5246763;28;20388;-70
2022/09/03 05:39:06;;;;;;;1999.90;999.90;;;22.10;99.90;;;;;;5246868;28;20064;-72
2022/09/03 05:41:37;;;;;;;1999.90;999.90;;;22.20;99.90;;;;;;5247207;28;20025;-70
2022/09/03 05:44:08;;;;;;;1999.90;999.90;;;22.30;99.90;;;;;;5246924;28;20098;-70
2022/09/03 05:46:39;;;;;;;1999.90;999.90;;;22.30;99.90;;;;;;5246379;28;20139;-70
2022/09/03 05:49:10;;;;;;;1999.90;999.90;;;22.50;99.90;;;;;;5246477;28;20509;-71
2022/09/03 05:51:41;;;;;;;1999.90;999.90;;;22.60;99.90;;;;;;5246549;28;20028;-70
2022/09/03 05:54:12;;;;;;;1999.90;999.90;;;22.70;99.90;;;;;;5246134;28;20162;-72
2022/09/03 05:56:43;;;;;;;1999.90;999.90;;;22.90;99.90;;;;;;5246490;28;20056;-71
2022/09/03 05:59:14;;;;;;;1999.90;999.90;;;23.10;99.90;;;;;;5246370;28;20033;-72
2022/09/03 06:01:45;;;;;;;1999.90;999.90;;;23.10;99.90;;;;;;5246587;28;20103;-70
2022/09/03 06:04:16;;;;;;;1999.90;999.90;;;23.30;99.90;;;;;;5246367;28;20043;-71
2022/09/03 06:06:48;;;;;;;1999.90;999.90;;;23.60;99.90;;;;;;5246179;28;20380;-74
2022/09/03 06:09:20;;;;;;;1999.90;999.90;;;23.70;99.90;;;;;;5246361;28;20561;-71
2022/09/03 06:11:52;;;;;;;1999.90;999.90;;;23.90;99.90;;;;;;5246211;28;20024;-70
2022/09/03 06:14:24;;;;;;;1999.90;999.90;;;24.10;99.90;;;;;;5246263;28;20499;-73
2022/09/03 06:16:55;;;;;;;1999.90;999.90;;;24.30;99.90;;;;;;5246357;28;20060;-70
2022/09/03 06:19:26;;;;;;;1999.90;999.90;;;24.60;99.90;;;;;;5246224;28;20029;-70
2022/09/03 06:21:57;;;;;;;1999.90;999.90;;;24.80;99.90;;;;;;5246222;28;20098;-72
2022/09/03 06:24:28;;;;;;;1999.90;999.90;;;24.70;99.90;;;;;;5246204;28;20021;-74
2022/09/03 06:27:00;;;;;;;1999.90;999.90;;;24.80;99.90;;;;;;5246086;28;20570;-69
2022/09/03 06:29:31;;;;;;;1999.90;999.90;;;24.90;99.90;;;;;;5246101;28;20051;-70
2022/09/03 06:32:03;;;;;;;1999.90;999.90;;;25.10;99.90;;;;;;5246218;28;20021;-70
2022/09/03 06:34:34;;;;;;;1999.90;999.90;;;25.20;99.90;;;;;;5246144;28;20048;-70
2022/09/03 06:37:04;;;;;;;1999.90;999.90;;;25.30;99.90;;;;;;5246176;28;20057;-70
2022/09/03 06:39:35;;;;;;;1999.90;999.90;;;25.30;99.90;;;;;;5246194;28;20040;-70
2022/09/03 06:42:08;;;;;;;1999.90;999.90;;;25.40;99.90;;;;;;5245947;28;20074;-71
2022/09/03 06:44:39;;;;;;;1999.90;999.90;;;25.50;99.90;;;;;;5246076;28;20498;-71
2022/09/03 06:47:09;;;;;;;1999.90;999.90;;;25.40;99.90;;;;;;5245829;28;20032;-71
2022/09/03 06:49:40;;;;;;;1999.90;999.90;;;25.70;99.90;;;;;;5246153;28;20070;-75
2022/09/03 06:52:11;;;;;;;1999.90;999.90;;;25.60;99.90;;;;;;5246267;28;20586;-70
2022/09/03 06:54:42;;;;;;;1999.90;999.90;;;25.30;99.90;;;;;;5245948;28;20368;-72
2022/09/03 06:57:12;;;;;;;1999.90;999.90;;;25.20;99.90;;;;;;5245837;28;20048;-71
2022/09/03 06:59:43;;;;;;;1999.90;999.90;;;25.40;99.90;;;;;;5245939;28;20376;-75
2022/09/03 07:02:14;;;;;;;1999.90;999.90;;;25.60;99.90;;;;;;5245753;28;20029;-71
2022/09/03 07:04:45;;;;;;;1999.90;999.90;;;26.00;99.90;;;;;;5245977;28;20024;-75
2022/09/03 07:07:16;;;;;;;1999.90;999.90;;;26.00;99.90;;;;;;5248475;28;20028;-72
2022/09/03 07:09:46;;;;;;;1999.90;999.90;;;26.00;99.90;;;;;;5249640;28;20473;-71
2022/09/03 07:12:18;;;;;;;1999.90;999.90;;;26.10;99.90;;;;;;5249391;28;20039;-74
2022/09/03 07:14:49;;;;;;;1999.90;999.90;;;26.10;99.90;;;;;;5249410;28;20028;-70
2022/09/03 07:17:20;;;;;;;1999.90;999.90;;;26.20;99.90;;;;;;5249382;28;20021;-74
2022/09/03 07:19:51;;;;;;;1999.90;999.90;;;26.40;99.90;;;;;;5249542;28;20158;-70
2022/09/03 07:22:21;;;;;;;1999.90;999.90;;;26.40;99.90;;;;;;5249342;28;20028;-71
2022/09/03 07:24:52;;;;;;;1999.90;999.90;;;26.40;99.90;;;;;;5249153;28;20683;-74
2022/09/03 07:27:23;;;;;;;1999.90;999.90;;;26.60;99.90;;;;;;5249120;28;20054;-72
2022/09/03 07:29:54;;;;;;;1999.90;999.90;;;26.50;99.90;;;;;;5249136;28;20036;-75
2022/09/03 07:32:24;;;;;;;1999.90;999.90;;;26.70;99.90;;;;;;5249157;28;20013;-71
2022/09/03 07:34:56;;;;;;;1999.90;999.90;;;26.70;99.90;;;;;;5231059;28;20592;-72
2022/09/03 07:37:26;;;;;;;1999.90;999.90;;;26.60;99.90;;;;;;5249045;28;20026;-75
2022/09/03 07:39:58;;;;;;;1999.90;999.90;;;26.70;99.90;;;;;;5248989;28;20376;-75
2022/09/03 07:42:29;;;;;;;1999.90;999.90;;;26.80;99.90;;;;;;5248818;28;20025;-71
2022/09/03 07:45:04;;;;;;;1999.90;999.90;;;26.90;99.90;;;;;;5248961;28;20029;-70
2022/09/03 07:47:35;;;;;;;1999.90;999.90;;;27.00;99.90;;;;;;5248788;28;20487;-70
2022/09/03 07:50:06;;;;;;;1999.90;999.90;;;27.00;99.90;;;;;;5248760;28;20025;-72
2022/09/03 07:52:37;;;;;;;1999.90;999.90;;;27.10;99.90;;;;;;5248795;28;20384;-75
2022/09/03 07:55:08;;;;;;;1999.90;999.90;;;27.40;99.90;;;;;;5248589;28;20028;-71
2022/09/03 07:57:39;;;;;;;1999.90;999.90;;;27.00;99.90;;;;;;5248544;28;20058;-73
2022/09/03 08:00:11;;;;;;;1999.90;999.90;;;26.60;99.90;;;;;;5248740;28;20025;-71
2022/09/03 08:02:42;;;;;;;1999.90;999.90;;;26.70;99.90;;;;;;5248984;28;20032;-75
2022/09/03 08:05:13;;;;;;;1999.90;999.90;;;26.80;99.90;;;;;;5248979;28;20114;-72
2022/09/03 08:07:44;;;;;;;1999.90;999.90;;;27.10;99.90;;;;;;5248503;28;20387;-72
2022/09/03 08:10:15;;;;;;;1999.90;999.90;;;27.30;99.90;;;;;;5248713;28;20541;-70
2022/09/03 08:12:46;;;;;;;1999.90;999.90;;;27.50;99.90;;;;;;5248333;28;20028;-72
2022/09/03 08:15:16;;;;;;;1999.90;999.90;;;27.70;99.90;;;;;;5248252;28;20027;-74
2022/09/03 08:17:48;;;;;;;1999.90;999.90;;;27.40;99.90;;;;;;5247873;28;20071;-73
2022/09/03 08:20:19;;;;;;;1999.90;999.90;;;27.00;99.90;;;;;;5247876;28;20031;-74
2022/09/03 08:22:50;;;;;;;1999.90;999.90;;;27.20;99.90;;;;;;5247771;28;20024;-71
2022/09/03 08:25:21;;;;;;;1999.90;999.90;;;27.60;99.90;;;;;;5247897;28;20032;-75
2022/09/03 08:27:51;;;;;;;1999.90;999.90;;;27.80;99.90;;;;;;5247880;28;20422;-73
2022/09/03 08:30:23;;;;;;;1999.90;999.90;;;27.90;99.90;;;;;;5248017;28;20017;-70
2022/09/03 08:32:55;;;;;;;1999.90;999.90;;;28.10;99.90;;;;;;5248066;28;20021;-70
2022/09/03 08:35:25;;;;;;;1999.90;999.90;;;27.90;99.90;;;;;;5247210;28;20031;-70
2022/09/03 08:37:56;;;;;;;1999.90;999.90;;;28.00;99.90;;;;;;5247869;28;20028;-70
2022/09/03 08:40:27;;;;;;;1999.90;999.90;;;28.10;99.90;;;;;;5247760;28;20036;-71
2022/09/03 08:43:17;;;;;;;1999.90;999.90;;;27.90;99.90;;;;;;5247596;28;20021;-71
2022/09/03 08:45:48;;;;;;;1999.90;999.90;;;27.40;99.90;;;;;;5247740;28;20547;-71
2022/09/03 08:48:22;;;;;;;1999.90;999.90;;;27.70;99.90;;;;;;5247455;28;20111;-70
2022/09/03 08:50:58;;;;;;;1999.90;999.90;;;27.90;99.90;;;;;;5247500;28;20476;-71
2022/09/03 08:54:02;;;;;;;1999.90;999.90;;;27.80;99.90;;;;;;5247619;28;20028;-70
2022/09/03 08:56:38;;;;;;;1999.90;999.90;;;27.80;99.90;;;;;;5203066;28;20044;-71
2022/09/03 08:59:09;;;;;;;1999.90;999.90;;;28.50;99.90;;;;;;5247407;28;20032;-70
2022/09/03 09:02:07;;;;;;;1999.90;999.90;;;28.70;99.90;;;;;;5247402;28;20086;-70
2022/09/03 09:05:11;;;;;;;1999.90;999.90;;;28.60;99.90;;;;;;5247377;28;20364;-75
2022/09/03 09:07:54;;;;;;;1999.90;999.90;;;28.90;99.90;;;;;;5242985;28;20052;-74
2022/09/03 09:10:29;;;;;;;1999.90;999.90;;;28.90;99.90;;;;;;5247256;28;20376;-73
2022/09/03 09:13:17;;;;;;;1999.90;999.90;;;28.30;99.90;;;;;;5247344;28;20043;-74
2022/09/03 09:16:09;;;;;;;1999.90;999.90;;;28.30;99.90;;;;;;5247635;28;20033;-72
2022/09/03 09:19:03;;;;;;;1999.90;999.90;;;28.00;99.90;;;;;;5229434;28;20032;-70
2022/09/03 09:21:44;;;;;;;1999.90;999.90;;;28.10;99.90;;;;;;5229222;28;20059;-71
2022/09/03 09:24:25;;;;;;;1999.90;999.90;;;28.10;99.90;;;;;;5247075;28;20029;-71
2022/09/03 09:26:59;;;;;;;1999.90;999.90;;;28.20;99.90;;;;;;5246950;28;20034;-70
2022/09/03 09:29:39;;;;;;;1999.90;999.90;;;28.20;99.90;;;;;;5246122;28;20045;-73
2022/09/03 09:32:11;;;;;;;1999.90;999.90;;;27.70;99.90;;;;;;5246929;28;20059;-71
2022/09/03 09:34:42;;;;;;;1999.90;999.90;;;27.40;99.90;;;;;;5246843;28;20028;-71
2022/09/03 09:37:15;;;;;;;1999.90;999.90;;;27.70;99.90;;;;;;5246720;28;20376;-71
2022/09/03 09:39:58;;;;;;;1999.90;999.90;;;27.70;99.90;;;;;;5246721;28;20024;-73
2022/09/03 09:42:30;;;;;;;1999.90;999.90;;;27.90;99.90;;;;;;5246523;28;20086;-70
2022/09/03 09:45:09;;;;;;;1999.90;999.90;;;28.00;99.90;;;;;;5246964;28;20423;-72
2022/09/03 09:47:41;;;;;;;1999.90;999.90;;;27.90;99.90;;;;;;5247079;28;20037;-70
2022/09/03 09:50:20;;;;;;;1999.90;999.90;;;27.90;99.90;;;;;;5246654;28;20504;-71
2022/09/03 09:53:04;;;;;;;1999.90;999.90;;;27.60;99.90;;;;;;5246525;28;20016;-71
2022/09/03 09:55:36;;;;;;;1999.90;999.90;;;27.40;99.90;;;;;;5246268;28;20175;-70
2022/09/03 09:58:09;;;;;;;1999.90;999.90;;;27.30;99.90;;;;;;5246456;28;20120;-72
2022/09/03 10:00:58;;;;;;;1999.90;999.90;;;27.40;99.90;;;;;;5246872;28;20458;-71
2022/09/03 10:03:34;;;;;;;1999.90;999.90;;;27.20;99.90;;;;;;5246448;28;20123;-70
2022/09/03 10:09:11;;;;;;;1999.90;999.90;;;27.00;99.90;;;;;;5246373;28;20044;-73
2022/09/03 10:12:05;;;;;;;1999.90;999.90;;;27.30;99.90;;;;;;5246452;28;20031;-74
2022/09/03 10:14:54;;;;;;;1999.90;999.90;;;27.30;99.90;;;;;;5246496;28;20029;-74
2022/09/03 10:17:48;;;;;;;1999.90;999.90;;;27.10;99.90;;;;;;5246342;28;20025;-75
2022/09/03 10:20:35;;;;;;;1999.90;999.90;;;26.80;99.90;;;;;;5246462;28;20027;-74
2022/09/03 10:23:27;;;;;;;1999.90;999.90;;;27.60;99.90;;;;;;5246739;28;20388;-75
2022/09/03 10:26:10;;;;;;;1999.90;999.90;;;27.80;99.90;;;;;;5246585;28;20112;-73
2022/09/03 10:28:41;;;;;;;1999.90;999.90;;;27.50;99.90;;;;;;5246197;28;20071;-74
2022/09/03 10:31:30;;;;;;;1999.90;999.90;;;27.10;99.90;;;;;;5246241;28;20555;-74
2022/09/03 10:34:01;;;;;;;1999.90;999.90;;;27.10;99.90;;;;;;5246249;28;20033;-74
2022/09/03 10:37:02;;;;;;;1999.90;999.90;;;27.10;99.90;;;;;;5246037;28;20082;-74
2022/09/03 10:39:50;;;;;;;1999.90;999.90;;;27.80;99.90;;;;;;5246211;28;20033;-74
2022/09/03 10:42:40;;;;;;;1999.90;999.90;;;28.10;99.90;;;;;;5250243;28;20024;-72
2022/09/03 10:45:36;;;;;;;1999.90;999.90;;;27.80;99.90;;;;;;5250240;28;20387;-74
2022/09/03 10:48:13;;;;;;;1999.90;999.90;;;27.90;99.90;;;;;;5249960;28;20040;-75
2022/09/03 10:50:50;;;;;;;1999.90;999.90;;;28.40;99.90;;;;;;5232032;28;20036;-73
2022/09/03 10:53:48;;;;;;;1999.90;999.90;;;28.40;99.90;;;;;;5249761;28;20120;-74
2022/09/03 10:56:50;;;;;;;1999.90;999.90;;;28.70;99.90;;;;;;5249605;28;20419;-74
2022/09/03 10:59:40;;;;;;;1999.90;999.90;;;28.90;99.90;;;;;;5218762;28;20040;-74
2022/09/03 11:02:24;;;;;;;1999.90;999.90;;;28.80;99.90;;;;;;5249727;28;20028;-74
2022/09/03 11:05:22;;;;;;;1999.90;999.90;;;28.60;99.90;;;;;;5249798;28;20052;-74
2022/09/03 11:08:35;;;;;;;1999.90;999.90;;;28.60;99.90;;;;;;5249689;28;20040;-73
2022/09/03 11:11:18;;;;;;;1999.90;999.90;;;28.30;99.90;;;;;;5249416;28;20503;-74
2022/09/03 11:14:01;;;;;;;1999.90;999.90;;;28.40;99.90;;;;;;5249563;28;20025;-74
2022/09/03 11:16:39;;;;;;;1999.90;999.90;;;28.40;99.90;;;;;;5249664;28;20427;-74
2022/09/03 11:19:14;;;;;;;1999.90;999.90;;;28.70;99.90;;;;;;5249514;28;20024;-74
2022/09/03 11:21:47;;;;;;;1999.90;999.90;;;28.80;99.90;;;;;;5231567;28;20028;-74
2022/09/03 11:24:22;;;;;;;1999.90;999.90;;;28.40;99.90;;;;;;5249326;28;20024;-75
2022/09/03 11:27:15;;;;;;;1999.90;999.90;;;28.20;99.90;;;;;;5249030;28;20049;-71
2022/09/03 11:29:57;;;;;;;1999.90;999.90;;;27.90;99.90;;;;;;5249279;28;20041;-72
2022/09/03 11:32:53;;;;;;;1999.90;999.90;;;27.60;99.90;;;;;;5249659;28;20028;-71
2022/09/03 11:35:33;;;;;;;1999.90;999.90;;;27.50;99.90;;;;;;5231300;28;20502;-71
2022/09/03 11:38:15;;;;;;;1999.90;999.90;;;27.20;99.90;;;;;;5249202;28;20039;-71
2022/09/03 11:40:58;;;;;;;1999.90;999.90;;;27.30;99.90;;;;;;5249217;28;20418;-73
2022/09/03 11:43:32;;;;;;;1999.90;999.90;;;27.60;99.90;;;;;;5248991;28;20020;-75
2022/09/03 11:46:13;;;;;;;1999.90;999.90;;;27.60;99.90;;;;;;5249011;28;20031;-73
2022/09/03 11:48:46;;;;;;;1999.90;999.90;;;27.60;99.90;;;;;;5248809;28;20028;-73
2022/09/03 11:51:34;;;;;;;1999.90;999.90;;;28.30;99.90;;;;;;5248508;28;20024;-74
2022/09/03 11:54:26;;;;;;;1999.90;999.90;;;28.10;99.90;;;;;;5248714;28;20069;-74
2022/09/03 11:57:09;;;;;;;1999.90;999.90;;;27.80;99.90;;;;;;5248477;28;20158;-74
2022/09/03 11:59:42;;;;;;;1999.90;999.90;;;27.80;99.90;;;;;;5248903;28;20032;-72
2022/09/03 12:02:23;;;;;;;1999.90;999.90;;;27.70;99.90;;;;;;5248517;28;20025;-72
2022/09/03 12:05:12;;;;;;;1999.90;999.90;;;28.30;99.90;;;;;;5230591;28;20124;-74
2022/09/03 12:08:02;;;;;;;1999.90;999.90;;;28.10;99.90;;;;;;5248442;28;20483;-74
2022/09/03 12:11:04;;;;;;;1999.90;999.90;;;28.30;99.90;;;;;;5230220;28;20025;-71
2022/09/03 12:13:52;;;;;;;1999.90;999.90;;;28.40;99.90;;;;;;5248405;28;20032;-73
2022/09/03 12:16:47;;;;;;;1999.90;999.90;;;27.70;99.90;;;;;;5248563;28;20422;-73
2022/09/03 12:19:46;;;;;;;1999.90;999.90;;;27.20;99.90;;;;;;5248367;28;20028;-74
2022/09/03 12:22:19;;;;;;;1999.90;999.90;;;27.00;99.90;;;;;;5230575;28;20115;-71
2022/09/03 12:24:50;;;;;;;1999.90;999.90;;;26.80;99.90;;;;;;5248062;28;20029;-73
2022/09/03 12:27:24;;;;;;;1999.90;999.90;;;26.80;99.90;;;;;;5247935;28;20047;-73
2022/09/03 12:29:59;;;;;;;1999.90;999.90;;;26.70;99.90;;;;;;5248234;28;20496;-70
2022/09/03 12:32:35;;;;;;;1999.90;999.90;;;26.50;99.90;;;;;;5230141;28;20027;-73
2022/09/03 12:35:19;;;;;;;1999.90;999.90;;;26.60;99.90;;;;;;5248051;28;20025;-73
2022/09/03 12:37:51;;;;;;;1999.90;999.90;;;26.60;99.90;;;;;;5247967;28;20028;-70
2022/09/03 12:40:28;;;;;;;1999.90;999.90;;;26.60;99.90;;;;;;5248417;28;20078;-71
2022/09/03 12:43:14;;;;;;;1999.90;999.90;;;26.40;99.90;;;;;;5230085;28;20017;-71
2022/09/03 12:45:47;;;;;;;1999.90;999.90;;;26.40;99.90;;;;;;5247846;28;20037;-69
2022/09/03 12:48:19;;;;;;;1999.90;999.90;;;26.30;99.90;;;;;;5247449;28;20384;-73
2022/09/03 12:51:01;;;;;;;1999.90;999.90;;;26.40;99.90;;;;;;5229719;28;20476;-70
2022/09/03 12:53:32;;;;;;;1999.90;999.90;;;26.20;99.90;;;;;;5247510;28;20036;-73